Time;durP1;ratioP1;P1;durP2;ratioP2;P2;SDS_P1;SDS_P2;PMS_P1;PMS_P2;Temp;Humidity;BMP_temperature;BMP_pressure;BME280_temperature;BME280_humidity;BME280_pressure;Samples;Min_cycle;Max_cycle;Signal;HPM_P1;HPM_P2
2023/09/17 00:02:23;;;;;;;8.02;3.35;;;18.70;99.90;;;;;;5019540;28;20549;-70
2023/09/17 00:04:48;;;;;;;5.78;3.30;;;18.70;99.90;;;;;;5040073;28;20503;-70
2023/09/17 00:07:14;;;;;;;5.57;3.03;;;18.70;99.90;;;;;;5026229;28;20037;-70
2023/09/17 00:09:39;;;;;;;6.55;3.70;;;18.80;99.90;;;;;;5046216;28;20029;-71
2023/09/17 00:12:05;;;;;;;5.68;3.28;;;18.70;99.90;;;;;;5022601;28;20084;-72
2023/09/17 00:14:31;;;;;;;5.63;3.03;;;18.70;99.90;;;;;;5022707;28;20158;-70
2023/09/17 00:16:57;;;;;;;4.93;3.20;;;18.70;99.90;;;;;;5043680;28;20504;-70
2023/09/17 00:19:23;;;;;;;6.05;3.10;;;18.70;99.90;;;;;;5025470;28;20053;-70
2023/09/17 00:21:49;;;;;;;9.02;3.25;;;18.70;99.90;;;;;;5033917;28;20489;-71
2023/09/17 00:24:14;;;;;;;7.85;3.13;;;18.70;99.90;;;;;;5033945;28;20033;-71
2023/09/17 00:26:40;;;;;;;6.60;3.15;;;18.70;99.90;;;;;;5018922;28;20029;-71
2023/09/17 00:29:05;;;;;;;9.85;3.08;;;18.70;99.90;;;;;;5025124;28;20033;-70
2023/09/17 00:31:31;;;;;;;6.75;3.97;;;18.70;99.90;;;;;;5022481;28;20044;-70
2023/09/17 00:33:56;;;;;;;3.72;2.42;;;18.70;99.90;;;;;;5025322;28;20042;-71
2023/09/17 00:36:23;;;;;;;4.68;2.83;;;18.70;99.90;;;;;;5024502;28;20036;-71
2023/09/17 00:38:48;;;;;;;4.63;2.85;;;18.70;99.90;;;;;;5042398;28;20036;-70
2023/09/17 00:41:14;;;;;;;6.82;3.60;;;18.60;99.90;;;;;;5034067;28;20040;-69
2023/09/17 00:43:40;;;;;;;4.70;3.20;;;18.60;99.90;;;;;;5019117;28;20345;-70
2023/09/17 00:46:06;;;;;;;8.02;3.65;;;18.70;99.90;;;;;;5038059;28;20063;-70
2023/09/17 00:48:32;;;;;;;5.68;3.63;;;18.60;99.90;;;;;;5036746;28;20045;-70
2023/09/17 00:50:58;;;;;;;6.65;3.70;;;18.70;99.90;;;;;;5036159;28;20036;-69
2023/09/17 00:53:25;;;;;;;9.18;3.90;;;18.60;99.90;;;;;;5019364;28;20037;-70
2023/09/17 00:55:51;;;;;;;4.53;3.10;;;18.60;99.90;;;;;;5043425;28;20037;-71
2023/09/17 00:58:16;;;;;;;7.40;3.50;;;18.70;99.90;;;;;;5035423;28;20529;-71
2023/09/17 01:00:43;;;;;;;9.52;4.03;;;18.70;99.90;;;;;;5037338;28;20079;-70
2023/09/17 01:03:12;;;;;;;8.48;3.30;;;18.70;99.90;;;;;;5027437;28;20478;-71
2023/09/17 01:05:41;;;;;;;7.55;3.35;;;18.70;99.90;;;;;;5040263;28;20044;-70
2023/09/17 01:08:09;;;;;;;6.63;3.72;;;18.70;99.90;;;;;;5024988;28;20030;-70
2023/09/17 01:10:40;;;;;;;7.45;3.67;;;18.60;99.90;;;;;;5028809;28;20033;-70
2023/09/17 01:13:06;;;;;;;8.55;3.20;;;18.60;99.90;;;;;;5025909;28;20021;-70
2023/09/17 01:15:33;;;;;;;6.72;3.38;;;18.60;99.90;;;;;;5047144;28;20037;-71
2023/09/17 01:18:02;;;;;;;10.23;3.63;;;18.70;99.90;;;;;;5046384;28;20037;-71
2023/09/17 01:20:33;;;;;;;7.03;3.40;;;18.60;99.90;;;;;;5046483;28;20037;-72
2023/09/17 01:23:03;;;;;;;6.22;3.20;;;18.50;99.90;;;;;;5046204;28;20083;-71
2023/09/17 01:25:35;;;;;;;6.20;3.28;;;18.60;99.90;;;;;;5025536;28;20041;-71
2023/09/17 01:28:01;;;;;;;8.02;2.92;;;18.60;99.90;;;;;;5048856;28;20432;-71
2023/09/17 01:30:27;;;;;;;5.20;3.10;;;18.60;99.90;;;;;;5039420;28;20164;-70
2023/09/17 01:32:53;;;;;;;8.13;3.85;;;18.60;99.90;;;;;;5035900;28;20133;-70
2023/09/17 01:35:20;;;;;;;8.73;3.35;;;18.50;99.90;;;;;;5031703;28;20489;-70
2023/09/17 01:37:59;;;;;;;6.88;4.00;;;18.50;99.90;;;;;;5022625;28;20033;-70
2023/09/17 01:40:25;;;;;;;6.70;3.50;;;18.50;99.90;;;;;;5045553;28;20037;-70
2023/09/17 01:42:52;;;;;;;5.90;3.40;;;18.50;99.90;;;;;;5040795;28;20037;-70
2023/09/17 01:45:18;;;;;;;6.65;4.00;;;18.50;99.90;;;;;;5040447;28;20471;-70
2023/09/17 01:47:47;;;;;;;5.90;3.50;;;18.50;99.90;;;;;;5032591;28;20045;-70
2023/09/17 01:50:15;;;;;;;6.05;3.33;;;18.50;99.90;;;;;;5040367;28;20029;-70
2023/09/17 01:52:41;;;;;;;7.03;3.97;;;18.50;99.90;;;;;;5020229;28;20029;-70
2023/09/17 01:55:10;;;;;;;9.07;4.38;;;18.40;99.90;;;;;;5022476;28;20044;-70
2023/09/17 01:57:36;;;;;;;7.30;3.33;;;18.40;99.90;;;;;;5042927;28;20034;-70
2023/09/17 02:00:16;;;;;;;7.00;3.47;;;18.40;99.90;;;;;;5036710;28;20884;-70
2023/09/17 02:02:46;;;;;;;6.95;3.67;;;18.30;99.90;;;;;;5041198;28;20047;-70
2023/09/17 02:05:12;;;;;;;6.15;3.65;;;18.30;99.90;;;;;;5033773;28;20047;-70
2023/09/17 02:07:38;;;;;;;8.48;3.50;;;18.30;99.90;;;;;;5044615;28;20393;-70
2023/09/17 02:10:04;;;;;;;5.22;3.17;;;18.30;99.90;;;;;;5045699;28;20040;-72
2023/09/17 02:12:30;;;;;;;5.82;3.58;;;18.30;99.90;;;;;;5024742;28;20501;-72
2023/09/17 02:14:55;;;;;;;6.30;3.53;;;18.30;99.90;;;;;;5027157;28;20033;-69
2023/09/17 02:17:22;;;;;;;7.70;3.65;;;18.30;99.90;;;;;;5025349;28;20160;-71
2023/09/17 02:19:47;;;;;;;8.10;3.58;;;18.30;99.90;;;;;;5040890;28;20116;-70
2023/09/17 02:22:13;;;;;;;7.05;3.90;;;18.20;99.90;;;;;;5028484;28;20442;-68
2023/09/17 02:24:39;;;;;;;6.43;3.95;;;18.30;99.90;;;;;;5040198;28;20040;-70
2023/09/17 02:27:04;;;;;;;9.35;3.88;;;18.30;99.90;;;;;;5036848;28;20036;-72
2023/09/17 02:29:30;;;;;;;7.68;3.80;;;18.30;99.90;;;;;;5023577;28;20083;-69
2023/09/17 02:31:55;;;;;;;8.70;3.63;;;18.20;99.90;;;;;;5044134;28;20520;-71
2023/09/17 02:34:21;;;;;;;5.65;3.90;;;18.20;99.90;;;;;;5038299;28;20060;-70
2023/09/17 02:36:47;;;;;;;6.85;4.38;;;18.20;99.90;;;;;;5035268;28;20072;-70
2023/09/17 02:39:13;;;;;;;7.28;3.80;;;18.10;99.90;;;;;;5037829;28;20497;-70
2023/09/17 02:41:39;;;;;;;11.13;4.85;;;18.00;99.90;;;;;;5029662;28;20059;-70
2023/09/17 02:44:06;;;;;;;10.07;5.20;;;17.90;99.90;;;;;;5016743;28;20033;-71
2023/09/17 02:46:32;;;;;;;8.57;4.25;;;17.80;99.90;;;;;;5032255;28;20060;-69
2023/09/17 02:48:58;;;;;;;9.70;4.78;;;17.60;99.90;;;;;;5034143;28;20044;-70
2023/09/17 02:51:23;;;;;;;10.90;5.38;;;17.60;99.90;;;;;;5033296;28;20038;-70
2023/09/17 02:53:49;;;;;;;12.40;5.10;;;17.40;99.90;;;;;;5017153;28;20120;-70
2023/09/17 02:56:15;;;;;;;9.85;5.15;;;17.20;99.90;;;;;;5038904;28;20116;-69
2023/09/17 02:58:40;;;;;;;10.93;5.57;;;17.10;99.90;;;;;;5034687;28;20196;-69
2023/09/17 03:01:18;;;;;;;12.30;6.28;;;17.00;99.90;;;;;;5038886;28;20049;-69
2023/09/17 03:03:45;;;;;;;9.63;5.97;;;16.90;99.90;;;;;;5032425;28;20033;-70
2023/09/17 03:06:11;;;;;;;9.55;5.72;;;16.80;99.90;;;;;;5035265;28;20030;-71
2023/09/17 03:08:41;;;;;;;12.20;6.45;;;16.70;99.90;;;;;;5036888;28;20049;-70
2023/09/17 03:11:13;;;;;;;11.82;5.90;;;16.60;99.90;;;;;;5029906;28;20039;-69
2023/09/17 03:13:44;;;;;;;12.25;6.38;;;16.60;99.90;;;;;;5012768;28;20111;-70
2023/09/17 03:16:12;;;;;;;9.57;6.05;;;16.50;99.90;;;;;;5034714;28;20021;-70
2023/09/17 03:18:43;;;;;;;10.93;6.10;;;16.50;99.90;;;;;;4998967;28;20108;-70
2023/09/17 03:21:09;;;;;;;10.52;6.78;;;16.50;99.90;;;;;;5012957;28;20021;-70
2023/09/17 03:23:35;;;;;;;11.00;6.05;;;16.40;99.90;;;;;;5015545;28;20084;-70
2023/09/17 03:26:01;;;;;;;9.32;6.00;;;16.40;99.90;;;;;;5014295;28;20042;-69
2023/09/17 03:28:28;;;;;;;10.95;6.63;;;16.30;99.90;;;;;;5014688;28;20034;-72
2023/09/17 03:30:53;;;;;;;10.25;6.32;;;16.30;99.90;;;;;;5024246;28;20045;-68
2023/09/17 03:33:19;;;;;;;11.65;6.72;;;16.20;99.90;;;;;;5014873;28;20029;-69
2023/09/17 03:35:46;;;;;;;14.38;6.90;;;16.20;99.90;;;;;;5022372;28;20080;-69
2023/09/17 03:38:12;;;;;;;9.82;6.53;;;16.20;99.90;;;;;;5018706;28;20026;-69
2023/09/17 03:40:38;;;;;;;15.60;6.45;;;16.20;99.90;;;;;;5016978;28;20383;-70
2023/09/17 03:43:04;;;;;;;12.02;6.43;;;16.20;99.90;;;;;;5019404;28;20034;-71
2023/09/17 03:45:31;;;;;;;10.13;6.43;;;16.20;99.90;;;;;;5019127;28;20393;-69
2023/09/17 03:47:56;;;;;;;12.55;7.22;;;16.10;99.90;;;;;;5025023;28;20060;-69
2023/09/17 03:50:22;;;;;;;20.88;8.10;;;16.10;99.90;;;;;;5022867;28;20053;-70
2023/09/17 03:52:51;;;;;;;10.70;7.25;;;16.10;99.90;;;;;;5015422;28;20448;-70
2023/09/17 03:55:17;;;;;;;14.40;7.60;;;16.00;99.90;;;;;;5018105;28;20042;-69
2023/09/17 03:57:43;;;;;;;12.68;8.00;;;16.00;99.90;;;;;;5019536;28;20086;-70
2023/09/17 04:00:12;;;;;;;13.40;7.90;;;15.90;99.90;;;;;;5018373;28;20068;-72
2023/09/17 04:02:39;;;;;;;12.90;7.32;;;15.90;99.90;;;;;;5022820;28;20034;-70
2023/09/17 04:05:10;;;;;;;13.02;8.68;;;15.90;99.90;;;;;;5019554;28;20041;-70
2023/09/17 04:07:37;;;;;;;14.75;7.70;;;15.90;99.90;;;;;;5014264;28;20071;-70
2023/09/17 04:10:05;;;;;;;16.55;9.00;;;15.90;99.90;;;;;;5022606;28;20434;-71
2023/09/17 04:12:35;;;;;;;14.77;8.25;;;15.90;99.90;;;;;;5012131;28;20042;-70
2023/09/17 04:15:02;;;;;;;16.93;7.97;;;15.90;99.90;;;;;;5019325;28;20037;-71
2023/09/17 04:17:28;;;;;;;19.98;8.77;;;15.90;99.90;;;;;;5017207;28;20034;-70
2023/09/17 04:19:55;;;;;;;12.38;7.30;;;16.00;99.90;;;;;;5021759;28;20041;-71
2023/09/17 04:22:21;;;;;;;13.00;7.30;;;16.00;99.90;;;;;;5022356;28;20524;-70
2023/09/17 04:24:46;;;;;;;13.57;8.18;;;15.90;99.90;;;;;;5015450;28;20042;-71
2023/09/17 04:27:12;;;;;;;13.50;7.43;;;16.00;99.90;;;;;;5015439;28;20053;-70
2023/09/17 04:29:38;;;;;;;14.52;6.88;;;16.00;99.90;;;;;;5021094;28;20485;-70
2023/09/17 04:32:04;;;;;;;11.60;7.65;;;16.00;99.90;;;;;;5030544;28;20144;-71
2023/09/17 04:34:29;;;;;;;12.27;6.90;;;16.00;99.90;;;;;;5021151;28;20103;-71
2023/09/17 04:36:58;;;;;;;12.32;6.70;;;16.00;99.90;;;;;;5021578;28;20051;-70
2023/09/17 04:39:24;;;;;;;13.57;7.25;;;15.90;99.90;;;;;;5021174;28;20034;-71
2023/09/17 04:41:50;;;;;;;10.70;6.63;;;15.90;99.90;;;;;;5020286;28;20403;-70
2023/09/17 04:44:16;;;;;;;13.45;6.40;;;15.90;99.90;;;;;;5022329;28;20041;-70
2023/09/17 04:46:43;;;;;;;11.88;5.70;;;15.90;99.90;;;;;;5020888;28;20045;-70
2023/09/17 04:49:09;;;;;;;11.40;4.85;;;15.90;99.90;;;;;;5028688;28;20120;-70
2023/09/17 04:51:34;;;;;;;8.88;5.22;;;15.90;99.90;;;;;;5019053;28;20528;-70
2023/09/17 04:54:04;;;;;;;8.93;5.35;;;15.90;99.90;;;;;;5027558;28;20038;-71
2023/09/17 04:56:32;;;;;;;10.18;5.47;;;15.90;99.90;;;;;;5018987;28;20172;-70
2023/09/17 04:58:59;;;;;;;10.90;5.38;;;15.90;99.90;;;;;;5018748;28;20406;-71
2023/09/17 05:01:25;;;;;;;9.38;5.72;;;15.90;99.90;;;;;;5020612;28;20743;-71
2023/09/17 05:03:50;;;;;;;9.00;5.43;;;15.90;99.90;;;;;;5027388;28;20121;-70
2023/09/17 05:06:16;;;;;;;7.82;4.90;;;15.90;99.90;;;;;;5027893;28;20040;-70
2023/09/17 05:08:41;;;;;;;8.57;4.78;;;16.00;99.90;;;;;;5020706;28;20402;-70
2023/09/17 05:11:07;;;;;;;10.25;4.80;;;16.00;99.90;;;;;;5028219;28;20168;-70
2023/09/17 05:13:33;;;;;;;7.95;4.28;;;16.00;99.90;;;;;;5025998;28;20493;-71
2023/09/17 05:15:58;;;;;;;6.85;4.28;;;16.10;99.90;;;;;;5028053;28;20503;-70
2023/09/17 05:18:24;;;;;;;10.25;5.57;;;16.10;99.90;;;;;;5026221;28;20112;-71
2023/09/17 05:20:53;;;;;;;7.50;4.68;;;16.10;99.90;;;;;;5027269;28;20401;-71
2023/09/17 05:23:19;;;;;;;10.98;4.38;;;16.00;99.90;;;;;;5023292;28;20105;-70
2023/09/17 05:25:45;;;;;;;7.72;4.57;;;16.10;99.90;;;;;;5032636;28;20041;-70
2023/09/17 05:28:10;;;;;;;8.38;4.63;;;16.10;99.90;;;;;;5038798;28;20396;-71
2023/09/17 05:30:37;;;;;;;7.63;4.72;;;16.00;99.90;;;;;;5021319;28;20047;-71
2023/09/17 05:33:06;;;;;;;9.25;4.60;;;15.90;99.90;;;;;;5019107;28;20109;-71
2023/09/17 05:35:34;;;;;;;7.32;4.32;;;15.80;99.90;;;;;;5040051;28;20045;-71
2023/09/17 05:38:00;;;;;;;7.88;4.68;;;15.70;99.90;;;;;;5034338;28;20444;-71
2023/09/17 05:40:26;;;;;;;10.07;5.30;;;15.60;99.90;;;;;;5039347;28;20037;-69
2023/09/17 05:42:51;;;;;;;9.68;4.93;;;15.50;99.90;;;;;;5016584;28;20045;-70
2023/09/17 05:45:17;;;;;;;10.27;5.07;;;15.50;99.90;;;;;;5037365;28;20025;-70
2023/09/17 05:47:43;;;;;;;11.55;5.85;;;15.50;99.90;;;;;;5034029;28;20042;-70
2023/09/17 05:50:10;;;;;;;12.98;6.72;;;15.40;99.90;;;;;;5036972;28;20070;-69
2023/09/17 05:52:36;;;;;;;13.98;6.20;;;15.30;99.90;;;;;;5032863;28;20056;-70
2023/09/17 05:55:04;;;;;;;10.63;6.70;;;15.30;99.90;;;;;;5019292;28;20167;-70
2023/09/17 05:57:30;;;;;;;11.35;7.03;;;15.20;99.90;;;;;;5035536;28;20638;-71
2023/09/17 05:59:56;;;;;;;16.33;7.85;;;15.10;99.90;;;;;;5032724;28;20082;-70
2023/09/17 06:02:22;;;;;;;17.80;7.72;;;15.00;99.90;;;;;;5036541;28;20115;-70
2023/09/17 06:04:52;;;;;;;14.68;8.02;;;15.00;99.90;;;;;;5033401;28;20757;-70
2023/09/17 06:07:18;;;;;;;14.82;7.95;;;15.00;99.90;;;;;;5040743;28;20033;-71
2023/09/17 06:09:44;;;;;;;17.10;8.15;;;15.00;99.90;;;;;;5019448;28;20033;-70
2023/09/17 06:12:10;;;;;;;14.73;7.88;;;14.90;99.90;;;;;;5020382;28;20401;-71
2023/09/17 06:14:35;;;;;;;22.48;9.90;;;14.90;99.90;;;;;;5037945;28;20041;-71
2023/09/17 06:17:01;;;;;;;20.10;8.95;;;14.80;99.90;;;;;;5033992;28;20049;-71
2023/09/17 06:19:27;;;;;;;21.40;9.23;;;14.80;99.90;;;;;;5037363;28;20044;-70
2023/09/17 06:21:53;;;;;;;19.27;9.60;;;14.80;99.90;;;;;;5023130;28;20030;-70
2023/09/17 06:24:19;;;;;;;19.00;9.35;;;14.80;99.90;;;;;;5010181;28;20052;-70
2023/09/17 06:26:44;;;;;;;23.70;10.20;;;14.80;99.90;;;;;;5022274;28;20041;-71
2023/09/17 06:29:10;;;;;;;20.45;10.93;;;14.80;99.90;;;;;;5026569;28;20038;-72
2023/09/17 06:31:35;;;;;;;19.70;10.13;;;14.70;99.90;;;;;;5021067;28;20053;-71
2023/09/17 06:34:01;;;;;;;24.55;11.45;;;14.70;99.90;;;;;;5022154;28;20045;-71
2023/09/17 06:36:27;;;;;;;40.25;12.32;;;14.70;99.90;;;;;;5010706;28;20038;-72
2023/09/17 06:38:53;;;;;;;32.85;12.50;;;14.70;99.90;;;;;;5012430;28;20442;-69
2023/09/17 06:41:19;;;;;;;32.30;13.25;;;14.70;99.90;;;;;;5013700;28;20087;-72
2023/09/17 06:43:46;;;;;;;29.67;13.48;;;14.60;99.90;;;;;;5014507;28;20045;-70
2023/09/17 06:46:11;;;;;;;32.80;14.63;;;14.60;99.90;;;;;;5006566;28;20573;-71
2023/09/17 06:48:37;;;;;;;32.80;14.25;;;14.60;99.90;;;;;;5016894;28;20121;-72
2023/09/17 06:51:02;;;;;;;30.42;14.02;;;14.70;99.90;;;;;;5014908;28;20037;-71
2023/09/17 06:53:28;;;;;;;34.85;14.98;;;14.60;99.90;;;;;;5017747;28;20059;-72
2023/09/17 06:55:54;;;;;;;41.47;15.77;;;14.70;99.90;;;;;;5018252;28;20025;-71
2023/09/17 06:58:19;;;;;;;30.58;14.77;;;14.70;99.90;;;;;;5010348;28;20108;-73
2023/09/17 07:00:47;;;;;;;32.60;15.15;;;14.80;99.90;;;;;;5017894;28;20042;-72
2023/09/17 07:03:12;;;;;;;30.00;14.60;;;14.80;99.90;;;;;;5008367;28;20048;-74
2023/09/17 07:05:38;;;;;;;31.38;14.57;;;14.90;99.90;;;;;;5011367;28;20072;-72
2023/09/17 07:08:04;;;;;;;42.58;14.45;;;14.90;99.90;;;;;;5007192;28;20389;-71
2023/09/17 07:10:29;;;;;;;29.35;13.05;;;14.90;99.90;;;;;;5006448;28;20062;-71
2023/09/17 07:12:55;;;;;;;27.27;12.10;;;14.90;99.90;;;;;;5022976;28;20345;-72
2023/09/17 07:15:21;;;;;;;27.52;12.35;;;14.90;99.90;;;;;;5007757;28;20080;-71
2023/09/17 07:17:47;;;;;;;30.48;12.90;;;14.90;99.90;;;;;;5014421;28;20034;-72
2023/09/17 07:20:13;;;;;;;27.63;12.50;;;14.90;99.90;;;;;;5012388;28;20034;-71
2023/09/17 07:22:40;;;;;;;26.60;12.50;;;14.90;99.90;;;;;;5011935;28;20038;-70
2023/09/17 07:25:06;;;;;;;27.77;12.88;;;15.00;99.90;;;;;;5028082;28;20040;-71
2023/09/17 07:27:33;;;;;;;27.23;12.70;;;15.00;99.90;;;;;;5037423;28;20041;-71
2023/09/17 07:29:58;;;;;;;25.00;11.90;;;15.00;99.90;;;;;;5039607;28;20374;-72
2023/09/17 07:32:27;;;;;;;28.77;12.90;;;15.00;99.90;;;;;;5034156;28;20055;-72
2023/09/17 07:34:53;;;;;;;30.27;12.13;;;15.00;99.90;;;;;;5039009;28;20041;-72
2023/09/17 07:37:20;;;;;;;29.73;12.35;;;15.00;99.90;;;;;;5043940;28;20037;-71
2023/09/17 07:39:47;;;;;;;26.73;12.40;;;15.10;99.90;;;;;;5040860;28;20493;-72
2023/09/17 07:42:13;;;;;;;29.67;13.60;;;15.10;99.90;;;;;;5015049;28;20033;-71
2023/09/17 07:44:40;;;;;;;25.85;11.32;;;15.10;99.90;;;;;;5017181;28;20394;-73
2023/09/17 07:47:09;;;;;;;24.55;12.02;;;15.10;99.90;;;;;;5050172;28;20040;-71
2023/09/17 07:49:36;;;;;;;25.80;11.55;;;15.20;99.90;;;;;;5022491;28;20042;-71
2023/09/17 07:52:03;;;;;;;25.02;12.02;;;15.20;99.90;;;;;;5051427;28;20041;-71
2023/09/17 07:54:30;;;;;;;29.92;13.18;;;15.20;99.90;;;;;;5043372;28;20087;-72
2023/09/17 07:56:55;;;;;;;26.92;12.57;;;15.20;99.90;;;;;;5035533;28;20043;-72
2023/09/17 07:59:21;;;;;;;25.75;12.55;;;15.20;99.90;;;;;;5037304;28;20606;-71
2023/09/17 08:01:49;;;;;;;25.73;11.45;;;15.30;99.90;;;;;;5035628;28;20159;-72
2023/09/17 08:04:15;;;;;;;25.23;12.48;;;15.20;99.90;;;;;;5044750;28;20082;-70
2023/09/17 08:06:41;;;;;;;26.80;12.23;;;15.30;99.90;;;;;;5023446;28;20041;-70
2023/09/17 08:09:07;;;;;;;23.38;11.85;;;15.30;99.90;;;;;;5041759;28;20033;-71
2023/09/17 08:11:32;;;;;;;21.52;11.38;;;15.30;99.90;;;;;;5026616;28;20051;-71
2023/09/17 08:13:59;;;;;;;24.48;11.27;;;15.30;99.90;;;;;;5045133;28;20033;-70
2023/09/17 08:16:25;;;;;;;26.58;12.43;;;15.30;99.90;;;;;;5044144;28;20116;-71
2023/09/17 08:18:51;;;;;;;22.38;11.48;;;15.30;99.90;;;;;;5038586;28;20148;-70
2023/09/17 08:21:17;;;;;;;24.40;12.13;;;15.40;99.90;;;;;;5041718;28;20496;-70
2023/09/17 08:23:45;;;;;;;26.08;12.10;;;15.30;99.90;;;;;;5024923;28;20052;-72
2023/09/17 08:26:10;;;;;;;23.77;11.02;;;15.40;99.90;;;;;;5024986;28;20621;-71
2023/09/17 08:28:37;;;;;;;23.23;11.60;;;15.40;99.90;;;;;;5020259;28;20032;-71
2023/09/17 08:31:03;;;;;;;22.75;11.43;;;15.40;99.90;;;;;;5021007;28;20033;-71
2023/09/17 08:33:29;;;;;;;20.83;10.20;;;15.50;99.90;;;;;;5042683;28;20389;-71
2023/09/17 08:35:55;;;;;;;19.85;9.95;;;15.50;99.90;;;;;;5020243;28;20018;-71
2023/09/17 08:38:20;;;;;;;18.88;9.70;;;15.50;99.90;;;;;;5040744;28;20319;-72
2023/09/17 08:40:47;;;;;;;14.73;8.30;;;15.50;99.90;;;;;;5014861;28;20039;-72
2023/09/17 08:43:14;;;;;;;17.65;9.07;;;15.60;99.90;;;;;;5014783;28;20052;-71
2023/09/17 08:45:41;;;;;;;18.95;9.13;;;15.50;99.90;;;;;;5039894;28;20085;-72
2023/09/17 08:48:07;;;;;;;18.70;9.13;;;15.50;99.90;;;;;;5012700;28;20041;-72
2023/09/17 08:50:35;;;;;;;17.38;8.63;;;15.60;99.90;;;;;;5015715;28;20096;-72
2023/09/17 08:53:03;;;;;;;16.67;8.70;;;15.70;99.90;;;;;;5031144;28;20037;-73
2023/09/17 08:55:30;;;;;;;14.63;8.27;;;15.70;99.90;;;;;;5023398;28;20386;-74
2023/09/17 08:58:06;;;;;;;13.25;7.20;;;15.70;99.90;;;;;;5023263;28;20033;-70
2023/09/17 09:00:35;;;;;;;12.50;6.95;;;15.70;99.90;;;;;;5023454;28;20444;-71
2023/09/17 09:03:02;;;;;;;11.57;6.72;;;15.60;99.90;;;;;;5028278;28;20025;-73
2023/09/17 09:05:30;;;;;;;14.10;6.97;;;15.60;99.90;;;;;;5046810;28;20033;-73
2023/09/17 09:07:56;;;;;;;13.30;7.10;;;15.70;99.90;;;;;;5039861;28;20033;-71
2023/09/17 09:10:22;;;;;;;11.85;6.13;;;15.70;99.90;;;;;;5029285;28;20048;-71
2023/09/17 09:12:49;;;;;;;13.60;6.38;;;15.70;99.90;;;;;;5044668;28;20112;-72
2023/09/17 09:15:15;;;;;;;10.80;5.90;;;15.70;99.90;;;;;;5019216;28;20040;-72
2023/09/17 09:17:40;;;;;;;10.98;6.45;;;15.70;99.90;;;;;;5029386;28;20040;-72
2023/09/17 09:20:09;;;;;;;12.48;6.70;;;15.80;99.90;;;;;;5022394;28;20476;-72
2023/09/17 09:22:36;;;;;;;10.13;5.72;;;15.90;99.90;;;;;;5022076;28;20324;-71
2023/09/17 09:25:03;;;;;;;10.80;5.88;;;15.90;99.90;;;;;;5024893;28;20066;-70
2023/09/17 09:27:28;;;;;;;11.32;6.45;;;15.90;99.90;;;;;;5015235;28;20068;-71
2023/09/17 09:29:54;;;;;;;8.60;5.13;;;16.00;99.90;;;;;;5046852;28;20053;-72
2023/09/17 09:32:20;;;;;;;11.40;5.60;;;16.00;99.90;;;;;;5022906;28;20029;-71
2023/09/17 09:34:47;;;;;;;10.40;6.22;;;16.10;99.90;;;;;;5045860;28;20381;-72
2023/09/17 09:37:13;;;;;;;12.27;6.45;;;16.20;99.90;;;;;;5042621;28;20087;-72
2023/09/17 09:39:42;;;;;;;14.27;6.38;;;16.30;99.90;;;;;;5023271;28;20044;-71
2023/09/17 09:42:11;;;;;;;13.13;6.53;;;16.30;99.90;;;;;;5030721;28;20480;-71
2023/09/17 09:44:37;;;;;;;11.38;6.28;;;16.30;99.90;;;;;;5032998;28;20041;-72
2023/09/17 09:47:03;;;;;;;10.45;5.60;;;16.40;99.90;;;;;;5039315;28;20036;-72
2023/09/17 09:49:38;;;;;;;17.30;6.28;;;16.30;99.90;;;;;;5027477;28;20185;-72
2023/09/17 09:52:04;;;;;;;13.73;6.72;;;16.30;99.90;;;;;;5040088;28;20042;-71
2023/09/17 09:54:29;;;;;;;12.93;7.60;;;16.20;99.90;;;;;;5021254;28;20599;-74
2023/09/17 09:56:55;;;;;;;11.98;6.45;;;16.20;99.90;;;;;;5030972;28;20056;-73
2023/09/17 09:59:21;;;;;;;13.20;6.85;;;16.20;99.90;;;;;;5034428;28;20033;-72
2023/09/17 10:01:47;;;;;;;16.02;6.90;;;16.10;99.90;;;;;;5006315;28;20785;-72
2023/09/17 10:04:14;;;;;;;14.07;7.53;;;16.10;99.90;;;;;;5013105;28;20146;-71
2023/09/17 10:06:40;;;;;;;12.63;6.88;;;16.20;99.90;;;;;;5009469;28;21364;-71
2023/09/17 10:09:06;;;;;;;19.48;8.18;;;16.20;99.90;;;;;;5019084;28;20033;-71
2023/09/17 10:11:32;;;;;;;14.57;7.50;;;16.20;99.90;;;;;;5014738;28;20102;-72
2023/09/17 10:14:03;;;;;;;15.23;8.30;;;16.20;99.90;;;;;;5031790;28;20041;-72
2023/09/17 10:16:29;;;;;;;15.90;8.45;;;16.20;99.90;;;;;;5032681;28;20044;-72
2023/09/17 10:18:56;;;;;;;16.27;7.97;;;16.20;99.90;;;;;;5027443;28;20174;-72
2023/09/17 10:21:25;;;;;;;14.02;8.23;;;16.10;99.90;;;;;;5034450;28;20122;-73
2023/09/17 10:23:53;;;;;;;15.73;7.25;;;16.20;99.90;;;;;;5016746;28;20034;-72
2023/09/17 10:26:22;;;;;;;15.75;8.60;;;16.20;99.90;;;;;;5034997;28;20037;-72
2023/09/17 10:28:48;;;;;;;18.23;9.30;;;16.30;99.90;;;;;;5003410;28;20514;-72
2023/09/17 10:31:15;;;;;;;15.68;8.60;;;16.30;99.90;;;;;;5018489;28;20107;-72
2023/09/17 10:33:44;;;;;;;17.80;8.57;;;16.40;99.90;;;;;;5012793;28;20084;-72
2023/09/17 10:36:11;;;;;;;14.55;7.88;;;16.40;99.90;;;;;;5029897;28;20037;-71
2023/09/17 10:38:39;;;;;;;24.08;10.63;;;16.50;99.90;;;;;;5029550;28;20037;-71
2023/09/17 10:41:05;;;;;;;18.20;8.90;;;16.50;99.90;;;;;;5039145;28;20041;-71
2023/09/17 10:43:35;;;;;;;21.73;9.18;;;16.70;99.90;;;;;;5040899;28;20048;-71
2023/09/17 10:46:03;;;;;;;16.42;8.95;;;16.70;99.90;;;;;;5030252;28;20398;-73
2023/09/17 10:48:31;;;;;;;15.38;8.15;;;16.80;99.90;;;;;;5023267;28;20029;-71
2023/09/17 10:50:58;;;;;;;20.90;9.15;;;16.80;99.90;;;;;;5041861;28;20025;-71
2023/09/17 10:53:26;;;;;;;21.50;8.00;;;16.70;99.90;;;;;;5038840;28;20473;-72
2023/09/17 10:56:08;;;;;;;16.10;8.65;;;16.70;99.90;;;;;;5007155;28;20030;-70
2023/09/17 10:58:49;;;;;;;15.57;8.93;;;16.70;99.90;;;;;;5020126;28;20033;-71
2023/09/17 11:01:24;;;;;;;16.13;8.75;;;16.80;99.90;;;;;;5018931;28;20033;-70
2023/09/17 11:03:58;;;;;;;16.25;9.00;;;16.80;99.90;;;;;;5039251;28;20025;-72
2023/09/17 11:06:25;;;;;;;16.35;9.10;;;16.80;99.90;;;;;;5039810;28;20040;-72
2023/09/17 11:08:54;;;;;;;18.40;10.63;;;16.80;99.90;;;;;;5021446;28;20029;-71
2023/09/17 11:11:22;;;;;;;21.67;10.07;;;16.90;99.90;;;;;;5041584;28;20025;-72
2023/09/17 11:13:47;;;;;;;23.27;10.70;;;16.90;99.90;;;;;;5043371;28;20123;-71
2023/09/17 11:16:18;;;;;;;22.60;10.25;;;16.90;99.90;;;;;;5040925;28;20107;-72
2023/09/17 11:19:02;;;;;;;;;;;16.90;99.90;;;;;;5028394;28;20037;-71
2023/09/17 11:21:27;;;;;;;19.48;9.27;;;16.90;99.90;;;;;;5031071;28;20383;-70
2023/09/17 11:23:53;;;;;;;20.40;9.65;;;16.90;99.90;;;;;;5036868;28;20030;-71
2023/09/17 11:26:29;;;;;;;26.90;10.52;;;16.90;99.90;;;;;;5039343;28;20695;-71
2023/09/17 11:28:56;;;;;;;29.73;11.85;;;16.90;99.90;;;;;;5034518;28;20083;-72
2023/09/17 11:31:24;;;;;;;24.10;10.85;;;16.90;99.90;;;;;;5039646;28;20050;-72
2023/09/17 11:33:51;;;;;;;25.85;12.88;;;17.00;99.90;;;;;;5028031;28;20041;-71
2023/09/17 11:36:17;;;;;;;26.25;11.48;;;17.10;99.90;;;;;;5039117;28;20060;-72
2023/09/17 11:38:46;;;;;;;27.50;11.18;;;17.10;99.90;;;;;;5019194;28;20896;-70
2023/09/17 11:41:15;;;;;;;27.55;10.40;;;17.10;99.90;;;;;;5015806;28;20169;-71
2023/09/17 11:43:46;;;;;;;23.67;11.73;;;17.10;99.90;;;;;;5018729;28;20040;-72
2023/09/17 11:46:13;;;;;;;28.42;11.48;;;17.20;99.90;;;;;;5017972;28;20038;-73
2023/09/17 11:48:41;;;;;;;23.60;11.23;;;17.20;99.90;;;;;;5021238;28;20029;-72
2023/09/17 11:51:22;;;;;;;26.20;11.95;;;17.30;99.90;;;;;;5016644;28;20037;-71
2023/09/17 11:54:00;;;;;;;25.55;11.25;;;17.40;99.90;;;;;;5032226;28;20041;-72
2023/09/17 11:56:28;;;;;;;28.20;13.38;;;17.40;99.90;;;;;;5021472;28;20055;-71
2023/09/17 11:59:09;;;;;;;30.80;11.65;;;17.50;99.90;;;;;;5039830;28;20442;-72
2023/09/17 12:01:40;;;;;;;26.80;11.45;;;17.50;99.90;;;;;;5038332;28;20022;-74
2023/09/17 12:04:07;;;;;;;35.85;11.52;;;17.50;99.90;;;;;;5034709;28;20076;-71
2023/09/17 12:06:43;;;;;;;28.13;11.57;;;17.50;99.90;;;;;;5016489;28;20047;-72
2023/09/17 12:09:32;;;;;;;30.77;11.98;;;17.50;99.90;;;;;;5023133;28;20408;-72
2023/09/17 12:11:59;;;;;;;26.75;11.77;;;17.50;99.90;;;;;;5019708;28;20036;-71
2023/09/17 12:14:25;;;;;;;27.88;11.98;;;17.50;99.90;;;;;;5041949;28;20033;-71
2023/09/17 12:16:51;;;;;;;31.45;12.60;;;17.50;99.90;;;;;;5039796;28;20048;-72
2023/09/17 12:19:18;;;;;;;26.83;12.32;;;17.50;99.90;;;;;;5042978;28;20033;-71
2023/09/17 12:21:50;;;;;;;29.45;12.25;;;17.50;99.90;;;;;;5030010;28;20665;-71
2023/09/17 12:24:29;;;;;;;33.42;13.07;;;17.50;99.90;;;;;;5008563;28;20572;-72
2023/09/17 12:29:31;;;;;;;30.75;12.45;;;17.60;99.90;;;;;;5040788;28;20103;-70
2023/09/17 12:31:57;;;;;;;28.65;13.07;;;17.60;99.90;;;;;;5046030;28;20436;-71
2023/09/17 12:34:23;;;;;;;34.45;13.13;;;17.60;99.90;;;;;;5040774;28;20124;-71
2023/09/17 12:36:49;;;;;;;30.52;13.45;;;17.60;99.90;;;;;;5037816;28;20464;-72
2023/09/17 12:39:16;;;;;;;33.83;13.07;;;17.70;99.90;;;;;;5027881;28;20459;-72
2023/09/17 12:41:42;;;;;;;35.72;12.57;;;17.80;99.90;;;;;;5031770;28;20056;-72